createdAt,value
2023-04-24T00:01:02.269Z,61.54
2023-04-24T00:02:05.272Z,61.74
2023-04-24T00:03:09.051Z,61.67
2023-04-24T00:04:15.265Z,61.74
2023-04-24T00:05:18.682Z,61.69
2023-04-24T00:06:24.668Z,61.69
2023-04-24T00:07:27.501Z,61.82
2023-04-24T00:08:30.788Z,61.89
2023-04-24T00:09:34.909Z,61.98
2023-04-24T00:10:37.733Z,62.18
2023-04-24T00:11:40.585Z,62.03
2023-04-24T00:12:43.412Z,62.10
2023-04-24T00:13:46.287Z,62.26
2023-04-24T00:14:49.156Z,62.24
2023-04-24T00:15:52.269Z,62.36
2023-04-24T00:16:55.121Z,62.32
2023-04-24T00:17:58.334Z,62.31
2023-04-24T00:19:01.953Z,62.33
2023-04-24T00:20:07.996Z,62.18
2023-04-24T00:21:10.960Z,62.30
2023-04-24T00:22:15.434Z,62.36
2023-04-24T00:23:18.427Z,62.32
2023-04-24T00:24:22.038Z,62.30
2023-04-24T00:25:24.920Z,62.49
2023-04-24T00:26:27.869Z,62.53
2023-04-24T00:27:31.109Z,62.44
2023-04-24T00:28:34.026Z,62.65
2023-04-24T00:29:36.881Z,62.93
2023-04-24T00:30:39.782Z,63.12
2023-04-24T00:31:42.754Z,63.22
2023-04-24T00:32:45.791Z,63.21
2023-04-24T00:33:48.770Z,63.28
2023-04-24T00:34:51.656Z,63.22
2023-04-24T00:35:54.539Z,63.18
2023-04-24T00:36:57.477Z,63.35
2023-04-24T00:38:00.630Z,63.42
2023-04-24T00:39:03.663Z,63.24
2023-04-24T00:40:07.394Z,63.36
2023-04-24T00:41:10.486Z,63.55
2023-04-24T00:42:13.898Z,63.48
2023-04-24T00:43:18.391Z,63.39
2023-04-24T00:44:21.418Z,63.59
2023-04-24T00:45:24.413Z,63.82
2023-04-24T00:46:27.434Z,63.93
2023-04-24T00:47:31.279Z,63.74
2023-04-24T00:48:35.358Z,63.89
2023-04-24T00:49:38.221Z,63.84
2023-04-24T00:50:41.620Z,63.88
2023-04-24T00:51:46.726Z,63.79
2023-04-24T00:52:50.159Z,63.89
2023-04-24T00:53:53.210Z,64.06
2023-04-24T00:54:56.073Z,64.03
2023-04-24T00:55:59.171Z,63.96
2023-04-24T00:57:04.288Z,64.18
2023-04-24T00:58:07.295Z,64.30
2023-04-24T00:59:10.309Z,64.33
2023-04-24T01:00:14.679Z,64.30
2023-04-24T01:01:22.901Z,64.46
2023-04-24T01:02:27.704Z,64.56
2023-04-24T01:03:32.885Z,64.58
2023-04-24T01:04:36.856Z,64.52
2023-04-24T01:05:41.191Z,64.68
2023-04-24T01:06:45.231Z,64.70
2023-04-24T01:07:50.140Z,64.79
2023-04-24T01:08:53.080Z,64.74
2023-04-24T01:09:56.416Z,64.91
2023-04-24T01:10:59.545Z,65.04
2023-04-24T01:12:02.620Z,65.10
2023-04-24T01:13:05.533Z,65.14
2023-04-24T01:14:12.435Z,65.22
2023-04-24T01:15:15.395Z,65.26
2023-04-24T01:16:22.075Z,65.31
2023-04-24T01:17:25.093Z,65.43
2023-04-24T01:18:28.883Z,65.42
2023-04-24T01:19:31.909Z,65.53
2023-04-24T01:20:35.674Z,65.77
2023-04-24T01:21:43.742Z,66.00
2023-04-24T01:22:46.624Z,66.04
2023-04-24T01:23:49.527Z,66.13
2023-04-24T01:24:55.004Z,65.94
2023-04-24T01:25:57.928Z,65.87
2023-04-24T01:27:02.755Z,65.92
2023-04-24T01:28:06.053Z,65.69
2023-04-24T01:29:09.145Z,65.61
2023-04-24T01:30:13.143Z,65.59
2023-04-24T01:31:16.646Z,65.67
2023-04-24T01:32:20.059Z,65.56
2023-04-24T01:33:23.461Z,65.50
2023-04-24T01:34:27.099Z,65.57
2023-04-24T01:35:30.270Z,65.48
2023-04-24T01:36:34.173Z,65.54
2023-04-24T01:37:38.431Z,65.52
2023-04-24T01:38:41.714Z,65.73
2023-04-24T01:39:45.516Z,65.76
2023-04-24T01:40:48.508Z,65.84
2023-04-24T01:41:51.547Z,66.06
2023-04-24T01:42:55.853Z,66.02
2023-04-24T01:43:59.676Z,66.16
2023-04-24T01:45:04.516Z,66.21
2023-04-24T01:46:07.752Z,66.31
2023-04-24T01:47:12.638Z,66.68
2023-04-24T01:48:15.803Z,66.42
2023-04-24T01:49:18.882Z,66.49
2023-04-24T01:50:21.802Z,66.36
2023-04-24T01:51:24.728Z,66.30
2023-04-24T01:52:28.268Z,66.34
2023-04-24T01:53:31.155Z,66.23
2023-04-24T01:54:34.476Z,66.25
2023-04-24T01:55:38.554Z,66.23
2023-04-24T01:56:43.767Z,66.24
2023-04-24T01:57:46.917Z,66.32
2023-04-24T01:58:51.478Z,66.21
2023-04-24T01:59:55.368Z,66.25
2023-04-24T02:00:59.935Z,66.44
2023-04-24T02:02:03.718Z,66.73
2023-04-24T02:03:07.146Z,66.62
2023-04-24T02:04:10.362Z,66.81
2023-04-24T02:05:13.277Z,66.67
2023-04-24T02:06:16.124Z,66.57
2023-04-24T02:07:18.975Z,66.62
2023-04-24T02:08:21.814Z,66.58
2023-04-24T02:09:26.255Z,66.61
2023-04-24T02:10:29.150Z,66.72
2023-04-24T02:11:32.154Z,66.71
2023-04-24T02:12:35.070Z,66.72
2023-04-24T02:13:38.025Z,66.89
2023-04-24T02:14:40.904Z,67.11
2023-04-24T02:15:43.772Z,67.06
2023-04-24T02:16:47.148Z,66.98
2023-04-24T02:17:50.286Z,67.19
2023-04-24T02:18:53.183Z,67.23
2023-04-24T02:19:56.080Z,67.16
2023-04-24T02:20:59.228Z,67.06
2023-04-24T02:22:02.194Z,67.13
2023-04-24T02:23:05.143Z,67.29
2023-04-24T02:24:08.009Z,67.42
2023-04-24T02:25:10.944Z,67.48
2023-04-24T02:26:13.989Z,67.50
2023-04-24T02:27:16.984Z,67.62
2023-04-24T02:28:20.581Z,67.57
2023-04-24T02:29:23.867Z,67.52
2023-04-24T02:30:26.846Z,67.60
2023-04-24T02:31:29.790Z,67.86
2023-04-24T02:32:32.665Z,68.02
2023-04-24T02:33:36.502Z,67.89
2023-04-24T02:34:39.603Z,67.83
2023-04-24T02:35:42.447Z,68.06
2023-04-24T02:36:45.304Z,68.17
2023-04-24T02:37:48.199Z,68.05
2023-04-24T02:38:51.109Z,68.09
2023-04-24T02:39:53.985Z,68.10
2023-04-24T02:40:57.061Z,68.25
2023-04-24T02:41:59.894Z,68.38
2023-04-24T02:43:02.767Z,68.51
2023-04-24T02:44:05.963Z,68.52
2023-04-24T02:45:09.234Z,68.53
2023-04-24T02:46:12.495Z,68.50
2023-04-24T02:47:15.447Z,68.61
2023-04-24T02:48:18.406Z,68.53
2023-04-24T02:49:21.483Z,68.66
2023-04-24T02:50:24.320Z,68.70
2023-04-24T02:51:27.917Z,68.61
2023-04-24T02:52:30.880Z,68.70
2023-04-24T02:53:33.909Z,68.86
2023-04-24T02:54:36.938Z,68.76
2023-04-24T02:55:40.011Z,68.86
2023-04-24T02:56:43.524Z,68.91
2023-04-24T02:57:46.464Z,69.00
2023-04-24T02:58:49.624Z,69.18
2023-04-24T02:59:52.545Z,69.07
2023-04-24T03:00:57.013Z,69.18
2023-04-24T03:02:00.396Z,69.21
2023-04-24T03:03:04.050Z,69.38
2023-04-24T03:04:07.698Z,69.46
2023-04-24T03:05:13.014Z,69.38
2023-04-24T03:06:16.628Z,69.32
2023-04-24T03:07:21.833Z,69.27
2023-04-24T03:08:24.732Z,69.36
2023-04-24T03:09:27.595Z,69.38
2023-04-24T03:10:30.520Z,69.47
2023-04-24T03:11:33.479Z,69.54
2023-04-24T03:12:37.100Z,69.56
2023-04-24T03:13:40.020Z,69.71
2023-04-24T03:14:42.864Z,69.81
2023-04-24T03:15:46.175Z,69.71
2023-04-24T03:16:49.085Z,69.76
2023-04-24T03:17:52.643Z,69.70
2023-04-24T03:18:56.587Z,69.57
2023-04-24T03:20:01.360Z,69.41
2023-04-24T03:21:05.094Z,69.47
2023-04-24T03:22:10.109Z,69.55
2023-04-24T03:23:13.119Z,69.40
2023-04-24T03:24:16.784Z,69.40
2023-04-24T03:25:19.957Z,69.59
2023-04-24T03:26:22.947Z,69.55
2023-04-24T03:27:36.024Z,69.65
2023-04-24T03:28:43.668Z,69.85
2023-04-24T03:29:46.809Z,69.75
2023-04-24T03:30:50.209Z,69.72
2023-04-24T03:31:53.727Z,69.76
2023-04-24T03:32:56.914Z,69.75
2023-04-24T03:34:02.805Z,69.84
2023-04-24T03:35:08.227Z,69.73
2023-04-24T03:36:12.172Z,69.86
2023-04-24T03:37:17.511Z,69.95
2023-04-24T03:38:25.124Z,69.99
2023-04-24T03:39:45.270Z,69.98
2023-04-24T03:40:48.847Z,69.85
2023-04-24T03:42:03.486Z,69.92
2023-04-24T03:43:15.852Z,69.79
2023-04-24T03:44:19.022Z,69.90
2023-04-24T03:45:22.185Z,69.76
2023-04-24T03:46:26.184Z,69.85
2023-04-24T03:47:31.732Z,69.85
2023-04-24T03:48:36.690Z,69.78
2023-04-24T03:49:39.585Z,69.82
2023-04-24T03:50:42.447Z,69.71
2023-04-24T03:51:46.686Z,69.93
2023-04-24T03:52:58.986Z,69.84
2023-04-24T03:54:10.781Z,69.83
2023-04-24T03:55:15.763Z,69.89
2023-04-24T03:56:21.849Z,69.79
2023-04-24T03:57:24.772Z,69.87
2023-04-24T03:58:38.003Z,69.79
2023-04-24T03:59:41.653Z,69.91
2023-04-24T04:00:56.236Z,69.82
2023-04-24T04:02:13.763Z,69.73
2023-04-24T04:03:17.537Z,69.65
2023-04-24T04:04:20.786Z,69.71
2023-04-24T04:05:23.919Z,69.62
2023-04-24T04:06:27.578Z,69.75
2023-04-24T04:07:34.506Z,69.79
2023-04-24T04:08:37.569Z,69.58
2023-04-24T04:09:40.660Z,69.54
2023-04-24T04:10:43.684Z,69.58
2023-04-24T04:11:46.716Z,69.45
2023-04-24T04:12:49.634Z,69.43
2023-04-24T04:13:52.577Z,69.33
2023-04-24T04:14:57.218Z,69.31
2023-04-24T04:16:00.781Z,69.42
2023-04-24T04:17:04.071Z,69.36
2023-04-24T04:18:07.393Z,69.28
2023-04-24T04:19:10.774Z,69.29
2023-04-24T04:20:14.530Z,69.16
2023-04-24T04:21:17.750Z,69.18
2023-04-24T04:22:20.880Z,69.14
2023-04-24T04:23:26.944Z,69.17
2023-04-24T04:24:41.778Z,69.25
2023-04-24T04:25:45.418Z,69.11
2023-04-24T04:26:48.454Z,69.17
2023-04-24T04:28:21.025Z,69.20
2023-04-24T04:29:25.080Z,69.11
2023-04-24T04:30:30.461Z,69.31
2023-04-24T04:31:39.896Z,69.45
2023-04-24T04:32:46.554Z,69.66
2023-04-24T04:33:49.964Z,69.66
2023-04-24T04:34:55.102Z,69.59
2023-04-24T04:35:58.643Z,69.63
2023-04-24T04:37:03.121Z,69.63
2023-04-24T04:38:38.268Z,69.87
2023-04-24T04:39:49.072Z,69.87
2023-04-24T04:40:58.090Z,69.82
2023-04-24T04:42:01.621Z,69.96
2023-04-24T04:43:09.735Z,69.88
2023-04-24T04:44:18.385Z,69.94
2023-04-24T04:45:21.727Z,69.95
2023-04-24T04:46:44.044Z,69.94
2023-04-24T04:48:10.061Z,69.78
2023-04-24T04:49:14.242Z,69.88
2023-04-24T04:50:17.959Z,69.71
2023-04-24T04:51:21.638Z,69.80
2023-04-24T04:52:26.332Z,69.71
2023-04-24T04:53:33.804Z,69.74
2023-04-24T04:54:36.713Z,69.66
2023-04-24T04:55:40.033Z,69.34
2023-04-24T04:56:51.935Z,69.28
2023-04-24T04:57:57.124Z,69.38
2023-04-24T04:59:00.527Z,69.19
2023-04-24T05:00:05.884Z,69.18
2023-04-24T05:01:17.171Z,68.97
2023-04-24T05:02:23.329Z,68.87
2023-04-24T05:03:26.555Z,68.89
2023-04-24T05:04:34.741Z,69.00
2023-04-24T05:05:41.566Z,68.98
2023-04-24T05:06:48.225Z,68.89
2023-04-24T05:07:51.561Z,68.65
2023-04-24T05:08:58.294Z,68.37
2023-04-24T05:10:11.563Z,68.34
2023-04-24T05:11:14.532Z,68.31
2023-04-24T05:12:17.872Z,68.25
2023-04-24T05:13:38.395Z,68.08
2023-04-24T05:14:45.418Z,67.89
2023-04-24T05:15:48.602Z,67.76
2023-04-24T05:16:52.063Z,67.68
2023-04-24T05:17:57.999Z,67.57
2023-04-24T05:19:01.471Z,67.46
2023-04-24T05:20:08.663Z,67.40
2023-04-24T05:21:11.570Z,67.32
2023-04-24T05:22:19.693Z,67.30
2023-04-24T05:23:25.852Z,67.28
2023-04-24T05:24:29.902Z,67.31
2023-04-24T05:26:02.081Z,67.07
2023-04-24T05:27:06.488Z,66.98
2023-04-24T05:28:12.379Z,66.80
2023-04-24T05:29:15.717Z,66.75
2023-04-24T05:30:19.128Z,66.55
2023-04-24T05:31:22.199Z,66.57
2023-04-24T05:32:26.919Z,66.59
2023-04-24T05:33:31.863Z,66.42
2023-04-24T05:34:34.703Z,66.34
2023-04-24T05:35:37.678Z,66.39
2023-04-24T05:36:41.006Z,66.29
2023-04-24T05:37:43.906Z,66.49
2023-04-24T05:38:47.060Z,66.45
2023-04-24T05:39:50.081Z,66.32
2023-04-24T05:40:52.931Z,66.28
2023-04-24T05:41:59.193Z,66.15
2023-04-24T05:43:02.185Z,66.14
2023-04-24T05:44:05.216Z,66.22
2023-04-24T05:45:08.743Z,66.25
2023-04-24T05:46:13.009Z,66.15
2023-04-24T05:47:16.358Z,65.92
2023-04-24T05:48:19.558Z,65.77
2023-04-24T05:49:22.740Z,65.68
2023-04-24T05:50:25.817Z,65.61
2023-04-24T05:51:28.778Z,65.41
2023-04-24T05:52:31.633Z,65.33
2023-04-24T05:53:35.200Z,65.25
2023-04-24T05:54:38.218Z,65.17
2023-04-24T05:55:41.600Z,65.05
2023-04-24T05:56:44.563Z,64.76
2023-04-24T05:57:50.274Z,64.89
2023-04-24T05:58:53.134Z,64.64
2023-04-24T05:59:56.675Z,64.48
2023-04-24T06:01:01.931Z,64.37
2023-04-24T06:02:05.494Z,64.36
2023-04-24T06:03:08.930Z,64.28
2023-04-24T06:04:15.250Z,64.27
2023-04-24T06:05:18.709Z,64.22
2023-04-24T06:06:21.955Z,64.30
2023-04-24T06:07:24.985Z,64.14
2023-04-24T06:08:28.001Z,64.04
2023-04-24T06:09:31.018Z,63.99
2023-04-24T06:10:34.053Z,63.84
2023-04-24T06:11:37.475Z,64.08
2023-04-24T06:12:40.740Z,63.81
2023-04-24T06:13:48.018Z,63.20
2023-04-24T06:15:10.007Z,62.67
2023-04-24T06:16:28.937Z,63.09
2023-04-24T06:17:36.263Z,62.78
2023-04-24T06:18:39.179Z,62.33
2023-04-24T06:19:42.455Z,61.29
2023-04-24T06:20:46.935Z,61.58
2023-04-24T06:21:49.849Z,60.79
2023-04-24T06:22:52.840Z,61.18
2023-04-24T06:23:57.121Z,61.31
2023-04-24T06:25:01.702Z,61.31
2023-04-24T06:26:05.198Z,61.19
2023-04-24T06:27:08.885Z,60.93
2023-04-24T06:28:11.757Z,60.23
2023-04-24T06:29:14.799Z,60.23
2023-04-24T06:30:17.654Z,59.99
2023-04-24T06:31:21.721Z,59.69
2023-04-24T06:32:25.551Z,59.82
2023-04-24T06:33:28.851Z,58.89
2023-04-24T06:34:32.113Z,59.38
2023-04-24T06:35:34.985Z,59.80
2023-04-24T06:36:38.238Z,59.52
2023-04-24T06:37:43.976Z,59.15
2023-04-24T06:38:47.086Z,59.05
2023-04-24T06:39:49.930Z,59.00
2023-04-24T06:40:52.920Z,59.01
2023-04-24T06:41:56.141Z,59.14
2023-04-24T06:43:01.194Z,58.95
2023-04-24T06:44:04.196Z,58.91
2023-04-24T06:45:07.396Z,58.52
2023-04-24T06:46:10.908Z,58.33
2023-04-24T06:47:14.814Z,58.14
2023-04-24T06:48:17.863Z,57.53
2023-04-24T06:49:21.212Z,56.95
2023-04-24T06:50:24.032Z,56.82
2023-04-24T06:51:27.755Z,56.85
2023-04-24T06:52:33.899Z,56.88
2023-04-24T06:53:36.791Z,56.11
2023-04-24T06:54:39.741Z,56.09
2023-04-24T06:55:44.300Z,55.83
2023-04-24T06:56:48.883Z,55.41
2023-04-24T06:57:51.762Z,55.11
2023-04-24T06:58:54.542Z,54.98
2023-04-24T06:59:57.513Z,54.37
2023-04-24T07:01:00.437Z,54.63
2023-04-24T07:02:04.373Z,54.97
2023-04-24T07:03:07.442Z,54.60
2023-04-24T07:04:10.913Z,53.98
2023-04-24T07:05:14.050Z,54.15
2023-04-24T07:06:19.565Z,54.40
2023-04-24T07:07:24.976Z,53.86
2023-04-24T07:08:29.288Z,53.69
2023-04-24T07:09:32.154Z,53.66
2023-04-24T07:10:36.683Z,53.01
2023-04-24T07:11:41.786Z,53.10
2023-04-24T07:12:44.618Z,53.21
2023-04-24T07:13:47.503Z,53.00
2023-04-24T07:14:51.902Z,52.82
2023-04-24T07:15:57.272Z,52.71
2023-04-24T07:17:00.191Z,52.59
2023-04-24T07:18:05.455Z,52.39
2023-04-24T07:19:08.891Z,52.10
2023-04-24T07:20:12.769Z,52.45
2023-04-24T07:21:15.755Z,51.89
2023-04-24T07:22:18.782Z,51.80
2023-04-24T07:23:21.760Z,51.24
2023-04-24T07:24:26.764Z,51.07
2023-04-24T07:25:29.907Z,51.53
2023-04-24T07:26:32.992Z,51.57
2023-04-24T07:27:37.380Z,51.78
2023-04-24T07:28:40.635Z,51.94
2023-04-24T07:29:44.074Z,51.85
2023-04-24T07:30:47.346Z,51.64
2023-04-24T07:31:50.279Z,51.24
2023-04-24T07:32:53.155Z,51.43
2023-04-24T07:33:58.969Z,51.59
2023-04-24T07:35:01.846Z,51.75
2023-04-24T07:36:05.311Z,51.55
2023-04-24T07:37:08.186Z,51.90
2023-04-24T07:38:11.183Z,51.77
2023-04-24T07:39:14.337Z,51.73
2023-04-24T07:40:17.284Z,51.67
2023-04-24T07:41:20.208Z,51.39
2023-04-24T07:42:23.114Z,51.54
2023-04-24T07:43:26.025Z,51.17
2023-04-24T07:44:28.871Z,50.79
2023-04-24T07:45:32.305Z,51.20
2023-04-24T07:46:35.286Z,51.37
2023-04-24T07:47:39.379Z,51.18
2023-04-24T07:48:42.277Z,51.23
2023-04-24T07:49:45.408Z,51.00
2023-04-24T07:50:48.790Z,50.83
2023-04-24T07:51:51.751Z,50.72
2023-04-24T07:52:54.621Z,50.82
2023-04-24T07:53:57.558Z,51.08
2023-04-24T07:55:01.572Z,50.69
2023-04-24T07:56:04.513Z,50.56
2023-04-24T07:57:09.215Z,50.67
2023-04-24T07:58:12.217Z,50.69
2023-04-24T07:59:15.087Z,50.75
2023-04-24T08:00:18.574Z,50.71
2023-04-24T08:01:21.610Z,50.42
2023-04-24T08:02:27.864Z,50.09
2023-04-24T08:03:31.261Z,49.73
2023-04-24T08:04:34.856Z,49.50
2023-04-24T08:05:40.237Z,48.76
2023-04-24T08:06:43.906Z,48.39
2023-04-24T08:07:49.783Z,48.79
2023-04-24T08:08:52.751Z,49.02
2023-04-24T08:09:55.821Z,48.75
2023-04-24T08:10:58.701Z,48.91
2023-04-24T08:12:02.363Z,48.90
2023-04-24T08:13:05.225Z,48.30
2023-04-24T08:14:08.257Z,48.13
2023-04-24T08:15:11.421Z,48.32
2023-04-24T08:16:14.359Z,47.80
2023-04-24T08:17:18.388Z,47.74
2023-04-24T08:18:21.292Z,47.83
2023-04-24T08:19:24.350Z,47.53
2023-04-24T08:20:27.362Z,47.34
2023-04-24T08:21:30.266Z,47.01
2023-04-24T08:22:33.395Z,47.18
2023-04-24T08:23:36.270Z,47.42
2023-04-24T08:24:39.123Z,47.75
2023-04-24T08:25:41.996Z,47.08
2023-04-24T08:26:44.953Z,46.46
2023-04-24T08:27:47.765Z,45.52
2023-04-24T08:28:50.620Z,45.65
2023-04-24T08:29:56.277Z,45.83
2023-04-24T08:30:59.135Z,45.46
2023-04-24T08:32:02.573Z,45.46
2023-04-24T08:33:05.908Z,45.11
2023-04-24T08:34:11.678Z,45.34
2023-04-24T08:35:14.645Z,45.64
2023-04-24T08:36:17.627Z,45.80
2023-04-24T08:37:21.170Z,45.29
2023-04-24T08:38:24.498Z,45.54
2023-04-24T08:39:27.385Z,45.90
2023-04-24T08:40:31.336Z,46.09
2023-04-24T08:41:35.785Z,46.26
2023-04-24T08:42:38.690Z,46.12
2023-04-24T08:43:42.804Z,46.20
2023-04-24T08:44:45.964Z,46.10
2023-04-24T08:45:48.902Z,45.95
2023-04-24T08:46:52.666Z,46.09
2023-04-24T08:47:56.238Z,46.38
2023-04-24T08:48:59.710Z,46.06
2023-04-24T08:50:06.842Z,46.37
2023-04-24T08:51:10.473Z,46.45
2023-04-24T08:52:14.182Z,46.21
2023-04-24T08:53:17.144Z,45.69
2023-04-24T08:54:20.458Z,45.43
2023-04-24T08:55:25.914Z,45.45
2023-04-24T08:56:29.783Z,45.46
2023-04-24T08:57:33.964Z,45.65
2023-04-24T08:58:37.011Z,45.93
2023-04-24T08:59:40.843Z,45.92
2023-04-24T09:00:47.994Z,45.77
2023-04-24T09:01:52.815Z,45.53
2023-04-24T09:02:57.092Z,45.58
2023-04-24T09:04:04.771Z,45.67
2023-04-24T09:05:08.799Z,45.63
2023-04-24T09:06:12.576Z,45.61
2023-04-24T09:07:17.853Z,45.56
2023-04-24T09:08:21.252Z,45.61
2023-04-24T09:09:25.771Z,45.42
2023-04-24T09:10:31.646Z,45.47
2023-04-24T09:11:35.476Z,45.52
2023-04-24T09:12:38.624Z,45.43
2023-04-24T09:13:42.410Z,45.54
2023-04-24T09:14:46.653Z,45.49
2023-04-24T09:15:49.919Z,45.20
2023-04-24T09:16:52.900Z,44.75
2023-04-24T09:17:56.458Z,44.78
2023-04-24T09:18:59.401Z,44.37
2023-04-24T09:20:02.807Z,44.25
2023-04-24T09:21:09.439Z,43.99
2023-04-24T09:22:13.145Z,43.88
2023-04-24T09:23:19.019Z,44.13
2023-04-24T09:24:26.042Z,44.06
2023-04-24T09:25:34.669Z,44.05
2023-04-24T09:26:38.135Z,44.05
2023-04-24T09:27:46.278Z,43.83
2023-04-24T09:28:49.151Z,43.70
2023-04-24T09:29:56.653Z,43.21
2023-04-24T09:31:16.831Z,42.84
2023-04-24T09:32:22.982Z,43.04
2023-04-24T09:33:26.327Z,43.14
2023-04-24T09:34:29.596Z,42.97
2023-04-24T09:35:33.299Z,43.07
2023-04-24T09:36:39.339Z,43.06
2023-04-24T09:37:44.799Z,43.11
2023-04-24T09:38:47.649Z,42.84
2023-04-24T09:40:09.242Z,42.78
2023-04-24T09:41:15.249Z,42.88
2023-04-24T09:42:18.109Z,42.85
2023-04-24T09:43:21.188Z,42.75
2023-04-24T09:44:27.735Z,42.67
2023-04-24T09:45:38.022Z,42.40
2023-04-24T09:46:43.103Z,42.20
2023-04-24T09:47:46.054Z,42.23
2023-04-24T09:48:49.149Z,42.28
2023-04-24T09:49:58.663Z,42.06
2023-04-24T09:51:02.635Z,41.46
2023-04-24T09:52:06.411Z,41.27
2023-04-24T09:53:11.768Z,41.50
2023-04-24T09:54:21.033Z,41.39
2023-04-24T09:55:23.943Z,41.29
2023-04-24T09:56:27.468Z,41.38
2023-04-24T09:57:30.389Z,41.62
2023-04-24T09:58:33.259Z,41.13
2023-04-24T09:59:37.473Z,40.71
2023-04-24T10:00:41.279Z,40.46
2023-04-24T10:01:45.826Z,40.47
2023-04-24T10:02:55.388Z,40.31
2023-04-24T10:03:58.189Z,40.06
2023-04-24T10:05:01.717Z,39.89
2023-04-24T10:06:10.259Z,40.00
2023-04-24T10:07:15.978Z,40.19
2023-04-24T10:08:19.116Z,39.75
2023-04-24T10:09:27.014Z,39.76
2023-04-24T10:10:31.643Z,39.94
2023-04-24T10:11:35.283Z,39.96
2023-04-24T10:12:38.598Z,40.10
2023-04-24T10:13:41.748Z,39.74
2023-04-24T10:14:48.540Z,39.72
2023-04-24T10:15:52.462Z,39.48
2023-04-24T10:16:57.649Z,39.56
2023-04-24T10:18:00.948Z,39.41
2023-04-24T10:19:04.863Z,39.34
2023-04-24T10:20:09.147Z,39.19
2023-04-24T10:21:12.266Z,39.10
2023-04-24T10:22:18.026Z,38.98
2023-04-24T10:23:21.310Z,38.99
2023-04-24T10:24:24.373Z,39.06
2023-04-24T10:25:30.152Z,39.02
2023-04-24T10:26:33.080Z,39.09
2023-04-24T10:27:37.117Z,39.24
2023-04-24T10:28:40.628Z,38.97
2023-04-24T10:29:45.262Z,38.86
2023-04-24T10:30:48.766Z,38.53
2023-04-24T10:31:51.836Z,38.30
2023-04-24T10:32:55.364Z,38.01
2023-04-24T10:34:01.302Z,38.00
2023-04-24T10:35:04.655Z,38.11
2023-04-24T10:36:10.774Z,37.88
2023-04-24T10:37:14.834Z,37.51
2023-04-24T10:38:25.930Z,37.92
2023-04-24T10:39:30.098Z,37.46
2023-04-24T10:40:35.541Z,37.65
2023-04-24T10:41:39.264Z,37.90
2023-04-24T10:42:43.868Z,37.66
2023-04-24T10:43:49.690Z,37.81
2023-04-24T10:44:52.603Z,38.46
2023-04-24T10:46:07.461Z,38.15
2023-04-24T10:47:16.697Z,38.02
2023-04-24T10:48:19.666Z,37.77
2023-04-24T10:49:31.279Z,37.22
2023-04-24T10:50:52.358Z,36.56
2023-04-24T10:52:01.697Z,36.51
2023-04-24T10:53:08.638Z,36.33
2023-04-24T10:54:36.904Z,36.41
2023-04-24T10:55:51.977Z,36.19
2023-04-24T10:57:20.675Z,36.20
2023-04-24T10:58:24.992Z,36.78
2023-04-24T10:59:35.915Z,37.31
2023-04-24T11:00:42.607Z,37.86
2023-04-24T11:01:54.314Z,37.64
2023-04-24T11:02:58.951Z,37.22
2023-04-24T11:04:04.321Z,37.32
2023-04-24T11:05:08.508Z,36.83
2023-04-24T11:06:13.923Z,36.84
2023-04-24T11:07:16.891Z,36.85
2023-04-24T11:08:30.472Z,36.81
2023-04-24T11:09:34.023Z,36.35
2023-04-24T11:10:55.415Z,36.11
2023-04-24T11:12:12.664Z,35.01
2023-04-24T11:13:17.703Z,35.37
2023-04-24T11:14:22.941Z,35.19
2023-04-24T11:15:26.262Z,35.04
2023-04-24T11:16:42.808Z,35.04
2023-04-24T11:17:45.867Z,34.87
2023-04-24T11:18:55.343Z,35.08
2023-04-24T11:20:09.390Z,35.23
2023-04-24T11:21:23.600Z,35.47
2023-04-24T11:22:28.021Z,35.47
2023-04-24T11:23:38.241Z,35.32
2023-04-24T11:24:50.987Z,35.33
2023-04-24T11:26:18.435Z,35.41
2023-04-24T11:27:23.308Z,35.60
2023-04-24T11:28:26.251Z,35.92
2023-04-24T11:29:58.548Z,35.93
2023-04-24T11:31:40.682Z,35.01
2023-04-24T11:32:44.576Z,35.14
2023-04-24T11:33:47.734Z,35.11
2023-04-24T11:34:52.658Z,35.15
2023-04-24T11:35:55.868Z,35.01
2023-04-24T11:36:59.022Z,34.89
2023-04-24T11:38:19.401Z,35.14
2023-04-24T11:39:26.004Z,35.34
2023-04-24T11:40:28.986Z,35.46
2023-04-24T11:41:33.037Z,35.32
2023-04-24T11:42:40.945Z,35.15
2023-04-24T11:43:44.466Z,35.72
2023-04-24T11:44:48.778Z,35.99
2023-04-24T11:45:51.979Z,35.78
2023-04-24T11:46:57.459Z,35.10
2023-04-24T11:48:01.195Z,34.22
2023-04-24T11:49:04.100Z,34.53
2023-04-24T11:50:09.432Z,34.44
2023-04-24T11:51:13.990Z,34.42
2023-04-24T11:52:17.365Z,34.04
2023-04-24T11:53:22.555Z,34.10
2023-04-24T11:54:25.891Z,34.71
2023-04-24T11:55:30.434Z,34.68
2023-04-24T11:56:33.322Z,34.26
2023-04-24T11:57:37.668Z,34.25
2023-04-24T11:58:40.542Z,34.25
2023-04-24T11:59:43.638Z,33.95
2023-04-24T12:00:47.216Z,33.93
2023-04-24T12:01:50.845Z,34.31
2023-04-24T12:03:06.839Z,34.40
2023-04-24T12:04:09.979Z,34.63
2023-04-24T12:05:28.000Z,34.80
2023-04-24T12:06:31.826Z,35.09
2023-04-24T12:07:45.660Z,35.28
2023-04-24T12:08:48.899Z,35.03
2023-04-24T12:09:58.132Z,35.14
2023-04-24T12:11:08.301Z,35.39
2023-04-24T12:12:16.460Z,35.63
2023-04-24T12:13:19.313Z,35.94
2023-04-24T12:14:22.211Z,36.26
2023-04-24T12:15:25.882Z,36.31
2023-04-24T12:16:28.999Z,35.81
2023-04-24T12:17:33.841Z,35.54
2023-04-24T12:18:42.918Z,35.66
2023-04-24T12:19:49.265Z,35.10
2023-04-24T12:20:52.269Z,34.72
2023-04-24T12:22:06.562Z,34.38
2023-04-24T12:23:09.844Z,34.13
2023-04-24T12:24:12.744Z,34.54
2023-04-24T12:25:18.746Z,34.46
2023-04-24T12:26:23.346Z,34.74
2023-04-24T12:27:26.558Z,34.81
2023-04-24T12:28:37.419Z,34.88
2023-04-24T12:29:52.989Z,34.93
2023-04-24T12:30:55.907Z,34.90
2023-04-24T12:31:58.806Z,34.98
2023-04-24T12:33:03.952Z,35.39
2023-04-24T12:34:19.091Z,35.50
2023-04-24T12:35:24.565Z,35.80
2023-04-24T12:36:28.058Z,36.42
2023-04-24T12:37:35.151Z,36.60
2023-04-24T12:38:41.826Z,37.64
2023-04-24T12:40:08.217Z,38.33
2023-04-24T12:41:13.782Z,38.76
2023-04-24T12:42:16.701Z,39.08
2023-04-24T12:43:21.254Z,39.27
2023-04-24T12:44:32.124Z,39.55
2023-04-24T12:45:34.974Z,39.99
2023-04-24T12:46:37.890Z,39.86
2023-04-24T12:47:41.727Z,40.15
2023-04-24T12:48:44.783Z,40.22
2023-04-24T12:49:47.716Z,40.10
2023-04-24T12:50:50.656Z,40.05
2023-04-24T12:51:54.016Z,40.29
2023-04-24T12:52:56.924Z,40.43
2023-04-24T12:53:59.902Z,40.17
2023-04-24T12:55:02.939Z,39.43
2023-04-24T12:56:05.901Z,39.37
2023-04-24T12:57:08.856Z,39.53
2023-04-24T12:58:12.145Z,39.45
2023-04-24T12:59:15.129Z,39.14
2023-04-24T13:00:20.092Z,38.84
2023-04-24T13:01:23.248Z,38.43
2023-04-24T13:02:28.536Z,38.19
2023-04-24T13:03:31.581Z,38.03
2023-04-24T13:04:34.511Z,38.27
2023-04-24T13:05:37.489Z,38.54
2023-04-24T13:06:40.480Z,38.18
2023-04-24T13:07:43.354Z,38.47
2023-04-24T13:08:46.335Z,38.53
2023-04-24T13:09:50.746Z,38.47
2023-04-24T13:10:54.918Z,38.18
2023-04-24T13:11:58.116Z,37.98
2023-04-24T13:13:01.024Z,37.66
2023-04-24T13:14:03.932Z,37.77
2023-04-24T13:15:07.850Z,37.63
2023-04-24T13:16:10.800Z,37.57
2023-04-24T13:17:15.191Z,37.72
2023-04-24T13:18:18.523Z,38.05
2023-04-24T13:19:21.535Z,38.29
2023-04-24T13:20:24.407Z,38.07
2023-04-24T13:21:27.513Z,37.85
2023-04-24T13:22:30.375Z,37.75
2023-04-24T13:23:33.238Z,38.01
2023-04-24T13:24:37.549Z,38.16
2023-04-24T13:25:41.589Z,37.91
2023-04-24T13:26:45.064Z,37.88
2023-04-24T13:27:47.905Z,38.16
2023-04-24T13:28:50.959Z,37.69
2023-04-24T13:29:53.923Z,37.59
2023-04-24T13:30:56.785Z,37.37
2023-04-24T13:31:59.671Z,37.37
2023-04-24T13:33:02.747Z,37.36
2023-04-24T13:34:05.775Z,37.12
2023-04-24T13:35:09.299Z,37.06
2023-04-24T13:36:16.079Z,36.93
2023-04-24T13:37:19.034Z,37.26
2023-04-24T13:38:23.337Z,37.42
2023-04-24T13:39:27.189Z,37.50
2023-04-24T13:40:30.214Z,37.64
2023-04-24T13:41:37.264Z,37.40
2023-04-24T13:42:41.049Z,37.45
2023-04-24T13:43:44.714Z,37.34
2023-04-24T13:44:47.788Z,36.89
2023-04-24T13:45:50.931Z,36.92
2023-04-24T13:46:57.811Z,36.92
2023-04-24T13:48:00.968Z,37.06
2023-04-24T13:49:04.875Z,37.16
2023-04-24T13:50:11.047Z,37.61
2023-04-24T13:51:13.913Z,37.72
2023-04-24T13:52:16.811Z,37.58
2023-04-24T13:53:19.679Z,37.70
2023-04-24T13:54:24.290Z,37.56
2023-04-24T13:55:27.270Z,37.48
2023-04-24T13:56:30.322Z,37.28